createdAt,value
2023-03-11T00:00:22.754Z,98607.94
2023-03-11T00:02:52.050Z,98615.75
2023-03-11T00:05:24.723Z,98640.06
2023-03-11T00:07:53.102Z,98644.44
2023-03-11T00:10:24.217Z,98654.88
2023-03-11T00:12:52.127Z,98662.69
2023-03-11T00:15:20.803Z,98682.69
2023-03-11T00:17:49.152Z,98694.84
2023-03-11T00:20:22.101Z,98707.88
2023-03-11T00:22:52.091Z,98718.28
2023-03-11T00:25:21.158Z,98722.66
2023-03-11T00:27:49.053Z,98724.41
2023-03-11T00:30:18.550Z,98732.22
2023-03-11T00:32:48.425Z,98741.78
2023-03-11T00:35:19.904Z,98756.53
2023-03-11T00:37:49.325Z,98764.38
2023-03-11T00:40:22.579Z,98777.41
2023-03-11T00:42:51.119Z,98785.22
2023-03-11T00:45:19.266Z,98798.25
2023-03-11T00:47:47.858Z,98801.72
2023-03-11T00:50:21.562Z,98819.09
2023-03-11T00:52:53.521Z,98821.69
2023-03-11T00:55:27.270Z,98825.19
2023-03-11T00:57:58.275Z,98830.38
2023-03-11T01:00:34.014Z,98844.31
2023-03-11T01:03:03.802Z,98859.97
2023-03-11T01:05:39.152Z,98868.66
2023-03-11T01:08:07.731Z,98869.53
2023-03-11T01:10:37.996Z,98870.38
2023-03-11T01:13:06.725Z,98886.91
2023-03-11T01:15:37.612Z,98899.06
2023-03-11T01:18:08.162Z,98912.09
2023-03-11T01:20:37.717Z,98932.09
2023-03-11T01:23:07.714Z,98941.66
2023-03-11T01:25:37.622Z,98961.63
2023-03-11T01:28:08.591Z,98964.25
2023-03-11T01:30:37.769Z,98972.03
2023-03-11T01:33:07.327Z,98979.88
2023-03-11T01:35:35.486Z,98992.91
2023-03-11T01:38:03.480Z,98987.69
2023-03-11T01:40:33.284Z,98985.84
2023-03-11T01:43:08.582Z,98996.34
2023-03-11T01:46:04.279Z,99008.53
2023-03-11T01:48:36.354Z,99018.09
2023-03-11T01:51:04.542Z,99015.47
2023-03-11T01:53:33.635Z,99028.47
2023-03-11T01:56:03.360Z,99034.56
2023-03-11T01:58:36.815Z,99038.06
2023-03-11T02:01:05.721Z,99052.81
2023-03-11T02:03:37.535Z,99074.59
2023-03-11T02:06:09.867Z,99071.97
2023-03-11T02:08:43.381Z,99078.88
2023-03-11T02:11:17.928Z,99093.66
2023-03-11T02:13:49.160Z,99094.53
2023-03-11T02:16:18.082Z,99103.22
2023-03-11T02:18:47.138Z,99112.78
2023-03-11T02:21:24.464Z,99114.53
2023-03-11T02:24:02.430Z,99126.66
2023-03-11T02:26:38.772Z,99137.06
2023-03-11T02:29:12.683Z,99139.66
2023-03-11T02:31:43.365Z,99164.91
2023-03-11T02:34:20.051Z,99162.31
2023-03-11T02:36:50.301Z,99173.63
2023-03-11T02:39:18.278Z,99184.91
2023-03-11T02:41:47.898Z,99191.03
2023-03-11T02:44:23.758Z,99200.56
2023-03-11T02:46:52.352Z,99206.66
2023-03-11T02:49:21.835Z,99213.59
2023-03-11T02:51:50.053Z,99214.44
2023-03-11T02:54:18.315Z,99213.56
2023-03-11T02:56:46.978Z,99237.06
2023-03-11T02:59:15.002Z,99248.34
2023-03-11T03:01:44.395Z,99246.56
2023-03-11T03:04:12.473Z,99256.25
2023-03-11T03:06:40.492Z,99270.06
2023-03-11T03:09:08.592Z,99264.88
2023-03-11T03:11:36.320Z,99280.50
2023-03-11T03:14:04.145Z,99284.88
2023-03-11T03:16:31.924Z,99276.16
2023-03-11T03:19:01.115Z,99298.75
2023-03-11T03:21:28.924Z,99300.50
2023-03-11T03:23:57.208Z,99305.63
2023-03-11T03:26:24.859Z,99315.25
2023-03-11T03:28:52.729Z,99324.81
2023-03-11T03:31:20.755Z,99333.53
2023-03-11T03:33:48.532Z,99332.63
2023-03-11T03:36:18.036Z,99354.41
2023-03-11T03:38:55.258Z,99351.75
2023-03-11T03:41:23.528Z,99359.63
2023-03-11T03:43:51.345Z,99363.91
2023-03-11T03:46:19.181Z,99377.81
2023-03-11T03:48:49.635Z,99375.16
2023-03-11T03:51:19.211Z,99379.53
2023-03-11T03:54:07.356Z,99392.56
2023-03-11T03:56:36.315Z,99390.75
2023-03-11T03:59:04.415Z,99409.09
2023-03-11T04:01:41.004Z,99409.06
2023-03-11T04:04:09.358Z,99412.50
2023-03-11T04:06:38.767Z,99408.19
2023-03-11T04:09:08.286Z,99417.75
2023-03-11T04:11:38.815Z,99416.88
2023-03-11T04:14:07.575Z,99421.22
2023-03-11T04:16:41.054Z,99426.44
2023-03-11T04:19:13.370Z,99431.66
2023-03-11T04:21:42.575Z,99432.53
2023-03-11T04:24:10.491Z,99435.97
2023-03-11T04:26:39.910Z,99445.56
2023-03-11T04:29:13.698Z,99452.53
2023-03-11T04:31:46.067Z,99460.38
2023-03-11T04:34:14.038Z,99456.91
2023-03-11T04:36:43.161Z,99464.69
2023-03-11T04:39:12.810Z,99470.78
2023-03-11T04:41:43.696Z,99474.22
2023-03-11T04:44:15.021Z,99476.00
2023-03-11T04:46:42.830Z,99482.91
2023-03-11T04:49:11.344Z,99482.03
2023-03-11T04:51:39.209Z,99471.59
2023-03-11T04:54:09.483Z,99476.81
2023-03-11T04:56:37.207Z,99490.72
2023-03-11T04:59:06.079Z,99505.50
2023-03-11T05:01:35.821Z,99515.06
2023-03-11T05:04:05.776Z,99511.56
2023-03-11T05:06:33.816Z,99511.56
2023-03-11T05:09:04.703Z,99515.03
2023-03-11T05:11:36.817Z,99518.47
2023-03-11T05:14:04.768Z,99516.72
2023-03-11T05:16:32.488Z,99515.81
2023-03-11T05:19:00.277Z,99521.94
2023-03-11T05:21:28.299Z,99528.03
2023-03-11T05:23:56.325Z,99536.72
2023-03-11T05:26:24.043Z,99531.50
2023-03-11T05:28:53.080Z,99540.19
2023-03-11T05:31:20.944Z,99532.28
2023-03-11T05:33:48.736Z,99541.06
2023-03-11T05:36:16.575Z,99557.53
2023-03-11T05:38:46.319Z,99555.84
2023-03-11T05:41:15.255Z,99568.88
2023-03-11T05:43:44.403Z,99567.09
2023-03-11T05:46:13.866Z,99582.78
2023-03-11T05:48:41.665Z,99588.00
2023-03-11T05:51:10.489Z,99591.53
2023-03-11T05:53:42.872Z,99599.34
2023-03-11T05:56:10.658Z,99602.88
2023-03-11T05:58:38.497Z,99602.88
2023-03-11T06:01:09.596Z,99616.81
2023-03-11T06:03:39.140Z,99627.22
2023-03-11T06:06:08.638Z,99623.69
2023-03-11T06:08:37.240Z,99628.94
2023-03-11T06:11:07.873Z,99638.56
2023-03-11T06:13:38.558Z,99641.13
2023-03-11T06:16:07.319Z,99646.38
2023-03-11T06:18:35.414Z,99648.13
2023-03-11T06:21:05.456Z,99651.63
2023-03-11T06:23:34.444Z,99651.63
2023-03-11T06:26:06.693Z,99652.47
2023-03-11T06:28:40.373Z,99659.41
2023-03-11T06:31:09.559Z,99662.03
2023-03-11T06:33:38.063Z,99663.72
2023-03-11T06:36:09.807Z,99670.69
2023-03-11T06:38:37.578Z,99672.41
2023-03-11T06:41:07.422Z,99681.16
2023-03-11T06:43:37.051Z,99689.03
2023-03-11T06:46:10.228Z,99696.81
2023-03-11T06:48:38.898Z,99700.28
2023-03-11T06:51:08.355Z,99695.09
2023-03-11T06:53:36.086Z,99708.16
2023-03-11T06:56:06.110Z,99706.41
2023-03-11T06:58:40.266Z,99709.88
2023-03-11T07:01:13.475Z,99712.59
2023-03-11T07:03:41.782Z,99718.69
2023-03-11T07:06:14.748Z,99724.78
2023-03-11T07:08:42.987Z,99736.16
2023-03-11T07:11:13.416Z,99733.53
2023-03-11T07:13:42.268Z,99737.06
2023-03-11T07:16:12.976Z,99741.47
2023-03-11T07:18:40.974Z,99752.84
2023-03-11T07:21:09.681Z,99760.75
2023-03-11T07:23:38.741Z,99757.28
2023-03-11T07:26:12.737Z,99756.56
2023-03-11T07:28:41.506Z,99765.34
2023-03-11T07:31:10.681Z,99770.66
2023-03-11T07:33:39.341Z,99770.75
2023-03-11T07:36:09.239Z,99779.53
2023-03-11T07:38:38.853Z,99780.50
2023-03-11T07:41:07.406Z,99789.28
2023-03-11T07:43:38.980Z,99791.94
2023-03-11T07:46:09.451Z,99797.25
2023-03-11T07:48:38.405Z,99811.25
2023-03-11T07:51:08.373Z,99813.97
2023-03-11T07:53:36.879Z,99814.91
2023-03-11T07:56:07.601Z,99825.38
2023-03-11T07:58:38.968Z,99828.09
2023-03-11T08:01:08.737Z,99834.25
2023-03-11T08:03:40.014Z,99834.28
2023-03-11T08:06:13.832Z,99844.81
2023-03-11T08:08:42.133Z,99849.22
2023-03-11T08:11:15.489Z,99850.16
2023-03-11T08:13:46.170Z,99861.53
2023-03-11T08:16:16.265Z,99867.63
2023-03-11T08:18:44.764Z,99871.16
2023-03-11T08:21:16.519Z,99887.72
2023-03-11T08:23:47.156Z,99892.94
2023-03-11T08:26:19.568Z,99890.22
2023-03-11T08:28:47.816Z,99891.84
2023-03-11T08:31:17.024Z,99896.13
2023-03-11T08:33:47.292Z,99907.44
2023-03-11T08:36:16.207Z,99904.78
2023-03-11T08:38:44.174Z,99909.88
2023-03-11T08:41:16.252Z,99912.47
2023-03-11T08:43:45.991Z,99913.28
2023-03-11T08:46:20.766Z,99925.44
2023-03-11T08:48:48.961Z,99934.09
2023-03-11T08:51:19.187Z,99941.09
2023-03-11T08:53:48.437Z,99943.75
2023-03-11T08:56:16.364Z,99943.72
2023-03-11T08:58:46.164Z,99947.03
2023-03-11T09:01:15.562Z,99946.16
2023-03-11T09:03:43.581Z,99958.38
2023-03-11T09:06:15.556Z,99956.63
2023-03-11T09:08:44.338Z,99956.66
2023-03-11T09:11:13.791Z,99971.50
2023-03-11T09:13:43.067Z,99971.59
2023-03-11T09:16:15.203Z,99967.31
2023-03-11T09:18:43.445Z,99977.97
2023-03-11T09:21:14.097Z,99977.31
2023-03-11T09:23:44.348Z,99979.56
2023-03-11T09:26:12.643Z,99987.16
2023-03-11T09:28:40.806Z,99997.31
2023-03-11T09:31:09.099Z,99993.56
2023-03-11T09:33:40.335Z,99997.56
2023-03-11T09:36:09.882Z,100004.81
2023-03-11T09:38:37.904Z,100022.69
2023-03-11T09:41:11.902Z,100014.31
2023-03-11T09:43:55.230Z,100016.28
2023-03-11T09:46:38.404Z,100032.75
2023-03-11T09:49:16.996Z,100030.88
2023-03-11T09:51:50.447Z,100034.38
2023-03-11T09:54:19.901Z,100039.75
2023-03-11T09:56:48.300Z,100046.75
2023-03-11T09:59:20.680Z,100040.94
2023-03-11T10:01:51.150Z,100041.31
2023-03-11T10:04:27.267Z,100044.09
2023-03-11T10:06:57.205Z,100050.59
2023-03-11T10:09:34.829Z,100043.03
2023-03-11T10:12:26.950Z,100062.88
2023-03-11T10:15:09.416Z,100056.41
2023-03-11T10:17:47.342Z,100057.81
2023-03-11T10:20:23.351Z,100061.91
2023-03-11T10:23:02.657Z,100062.56
2023-03-11T10:25:38.764Z,100065.97
2023-03-11T10:28:14.977Z,100069.59
2023-03-11T10:30:46.837Z,100076.91
2023-03-11T10:33:22.584Z,100076.06
2023-03-11T10:35:56.800Z,100071.66
2023-03-11T10:38:29.134Z,100085.59
2023-03-11T10:41:00.881Z,100081.00
2023-03-11T10:43:33.104Z,100077.81
2023-03-11T10:46:00.946Z,100088.47
2023-03-11T10:48:28.967Z,100082.31
2023-03-11T10:51:05.816Z,100091.56
2023-03-11T10:53:37.519Z,100090.94
2023-03-11T10:56:30.045Z,100090.41
2023-03-11T10:59:02.936Z,100086.25
2023-03-11T11:01:31.448Z,100093.47
2023-03-11T11:04:23.948Z,100098.03
2023-03-11T11:06:54.085Z,100108.50
2023-03-11T11:09:26.896Z,100099.84
2023-03-11T11:12:04.335Z,100106.91
2023-03-11T11:14:50.056Z,100110.38
2023-03-11T11:17:20.809Z,100119.78
2023-03-11T11:19:50.508Z,100116.00
2023-03-11T11:22:27.605Z,100116.53
2023-03-11T11:24:56.986Z,100117.13
2023-03-11T11:27:29.915Z,100119.56
2023-03-11T11:30:16.153Z,100121.88
2023-03-11T11:32:44.273Z,100126.97
2023-03-11T11:35:17.057Z,100128.59
2023-03-11T11:37:49.182Z,100124.19
2023-03-11T11:40:26.881Z,100120.63
2023-03-11T11:42:58.031Z,100118.00
2023-03-11T11:45:32.927Z,100131.34
2023-03-11T11:48:08.193Z,100115.69
2023-03-11T11:50:38.146Z,100127.00
2023-03-11T11:53:18.371Z,100122.53
2023-03-11T11:55:50.106Z,100125.19
2023-03-11T11:58:18.160Z,100126.13
2023-03-11T12:00:57.535Z,100131.38
2023-03-11T12:03:53.365Z,100126.22
2023-03-11T12:06:28.393Z,100139.69
2023-03-11T12:09:08.837Z,100135.78
2023-03-11T12:11:47.471Z,100133.31
2023-03-11T12:14:23.952Z,100131.16
2023-03-11T12:16:57.048Z,100123.50
2023-03-11T12:19:36.232Z,100118.53
2023-03-11T12:22:35.484Z,100120.50
2023-03-11T12:25:26.770Z,100127.66
2023-03-11T12:28:01.148Z,100125.91
2023-03-11T12:30:32.530Z,100125.72
2023-03-11T12:33:05.346Z,100131.91
2023-03-11T12:35:35.031Z,100140.00
2023-03-11T12:38:17.420Z,100123.78
2023-03-11T12:41:00.445Z,100132.88
2023-03-11T12:43:48.815Z,100128.00
2023-03-11T12:46:18.996Z,100137.44
2023-03-11T12:48:52.706Z,100132.47
2023-03-11T12:51:40.408Z,100129.38
2023-03-11T12:54:30.873Z,100139.13
2023-03-11T12:57:02.896Z,100139.34
2023-03-11T12:59:56.559Z,100133.34
2023-03-11T13:02:47.610Z,100137.03
2023-03-11T13:05:24.506Z,100144.09
2023-03-11T13:07:58.783Z,100132.94
2023-03-11T13:10:39.548Z,100140.25
2023-03-11T13:13:39.400Z,100136.97
2023-03-11T13:16:39.865Z,100149.59
2023-03-11T13:19:37.625Z,100150.59
2023-03-11T13:22:26.979Z,100148.03
2023-03-11T13:24:55.442Z,100153.28
2023-03-11T13:27:43.603Z,100155.09
2023-03-11T13:30:20.975Z,100149.88
2023-03-11T13:33:07.642Z,100147.31
2023-03-11T13:35:56.207Z,100148.22
2023-03-11T13:38:43.981Z,100161.34
2023-03-11T13:41:21.307Z,100175.41
2023-03-11T13:43:51.812Z,100164.75
2023-03-11T13:46:29.860Z,100169.13
2023-03-11T13:49:05.354Z,100169.09
2023-03-11T13:51:39.208Z,100186.59
2023-03-11T13:54:22.869Z,100182.09
2023-03-11T13:56:58.607Z,100185.44
2023-03-11T13:59:31.685Z,100190.53
2023-03-11T14:02:05.177Z,100187.09
2023-03-11T14:04:37.307Z,100187.19
2023-03-11T14:07:14.477Z,100189.97
2023-03-11T14:09:42.427Z,100200.63
2023-03-11T14:12:13.018Z,100205.97
2023-03-11T14:14:49.353Z,100198.09
2023-03-11T14:17:21.393Z,100211.28
2023-03-11T14:20:14.989Z,100205.09
2023-03-11T14:22:46.927Z,100208.72
2023-03-11T14:25:20.179Z,100207.88
2023-03-11T14:27:54.290Z,100212.31
2023-03-11T14:30:25.229Z,100207.09
2023-03-11T14:33:03.351Z,100211.50
2023-03-11T14:35:32.986Z,100220.16
2023-03-11T14:38:01.827Z,100215.75
2023-03-11T14:40:32.140Z,100222.88
2023-03-11T14:43:02.796Z,100225.53
2023-03-11T14:45:32.779Z,100235.25
2023-03-11T14:48:07.124Z,100232.63
2023-03-11T14:50:38.371Z,100226.44
2023-03-11T14:53:14.625Z,100235.16
2023-03-11T14:55:51.068Z,100240.22
2023-03-11T14:58:26.445Z,100241.72
2023-03-11T15:00:57.727Z,100233.69
2023-03-11T15:03:32.315Z,100228.53
2023-03-11T15:06:04.421Z,100234.75
2023-03-11T15:08:36.425Z,100234.00
2023-03-11T15:11:19.319Z,100234.06
2023-03-11T15:13:51.647Z,100227.06
2023-03-11T15:16:31.820Z,100230.63
2023-03-11T15:19:05.041Z,100236.78
2023-03-11T15:21:36.111Z,100237.66
2023-03-11T15:24:08.533Z,100236.69
2023-03-11T15:26:38.281Z,100237.50
2023-03-11T15:29:17.489Z,100243.56
2023-03-11T15:31:47.960Z,100240.91
2023-03-11T15:37:24.923Z,100247.03
2023-03-11T15:39:53.314Z,100243.38
2023-03-11T15:42:27.673Z,100245.91
2023-03-11T15:45:14.270Z,100258.91
2023-03-11T15:47:43.027Z,100243.06
2023-03-11T15:50:25.208Z,100253.59
2023-03-11T15:52:56.254Z,100251.78
2023-03-11T15:55:24.967Z,100257.75
2023-03-11T15:57:56.856Z,100256.81
2023-03-11T16:00:25.318Z,100265.50
2023-03-11T16:02:54.571Z,100267.19
2023-03-11T16:05:25.299Z,100260.97
2023-03-11T16:07:54.935Z,100260.78
2023-03-11T16:10:25.557Z,100262.34
2023-03-11T16:12:53.182Z,100265.81
2023-03-11T16:15:25.051Z,100267.47
2023-03-11T16:17:53.689Z,100262.06
2023-03-11T16:20:23.063Z,100262.00
2023-03-11T16:22:53.591Z,100274.22
2023-03-11T16:25:24.915Z,100276.78
2023-03-11T16:27:54.467Z,100274.13
2023-03-11T16:30:23.521Z,100276.66
2023-03-11T16:32:51.316Z,100288.91
2023-03-11T16:35:19.411Z,100285.22
2023-03-11T16:37:47.599Z,100283.31
2023-03-11T16:40:17.888Z,100284.00
2023-03-11T16:42:47.369Z,100288.16
2023-03-11T16:45:17.386Z,100288.91
2023-03-11T16:47:45.261Z,100294.91
2023-03-11T16:50:13.323Z,100296.53
2023-03-11T16:52:41.099Z,100304.19
2023-03-11T16:55:09.974Z,100295.28
2023-03-11T16:57:38.793Z,100292.53
2023-03-11T17:00:11.043Z,100298.47
2023-03-11T17:02:39.575Z,100298.28
2023-03-11T17:05:09.261Z,100304.25
2023-03-11T17:07:39.439Z,100309.31
2023-03-11T17:10:08.609Z,100317.88
2023-03-11T17:12:36.733Z,100317.66
2023-03-11T17:15:05.408Z,100318.34
2023-03-11T17:17:34.389Z,100328.69
2023-03-11T17:20:02.053Z,100338.06
2023-03-11T17:22:29.801Z,100325.56
2023-03-11T17:24:57.425Z,100327.03
2023-03-11T17:27:26.123Z,100336.41
2023-03-11T17:29:56.022Z,100330.09
2023-03-11T17:32:23.668Z,100334.16
2023-03-11T17:34:52.741Z,100335.72
2023-03-11T17:37:20.466Z,100346.03
2023-03-11T17:39:48.367Z,100343.16
2023-03-11T17:42:17.041Z,100346.50
2023-03-11T17:44:51.508Z,100353.31
2023-03-11T17:47:21.343Z,100355.69
2023-03-11T17:49:50.294Z,100349.28
2023-03-11T17:52:19.654Z,100354.28
2023-03-11T17:54:47.503Z,100357.59
2023-03-11T17:57:15.098Z,100360.88
2023-03-11T17:59:43.004Z,100360.72
2023-03-11T18:02:14.031Z,100358.78
2023-03-11T18:04:45.933Z,100365.53
2023-03-11T18:07:13.917Z,100360.97
2023-03-11T18:09:42.863Z,100364.22
2023-03-11T18:12:10.483Z,100364.00
2023-03-11T18:14:38.132Z,100357.72
2023-03-11T18:17:06.068Z,100371.47
2023-03-11T18:19:33.681Z,100365.19
2023-03-11T18:22:01.296Z,100368.56
2023-03-11T18:24:29.184Z,100371.88
2023-03-11T18:26:58.147Z,100369.13
2023-03-11T18:29:25.807Z,100369.75
2023-03-11T18:31:53.476Z,100368.78
2023-03-11T18:34:22.207Z,100367.75
2023-03-11T18:36:50.092Z,100374.63
2023-03-11T18:39:17.733Z,100366.66
2023-03-11T18:41:45.325Z,100377.00
2023-03-11T18:44:14.294Z,100367.25
2023-03-11T18:46:42.474Z,100368.88
2023-03-11T18:49:12.991Z,100373.19
2023-03-11T18:51:41.046Z,100365.19
2023-03-11T18:54:09.398Z,100368.53
2023-03-11T18:56:37.147Z,100370.16
2023-03-11T18:59:04.992Z,100376.94
2023-03-11T19:01:34.480Z,100373.34
2023-03-11T19:04:02.200Z,100381.00
2023-03-11T19:06:30.287Z,100381.75
2023-03-11T19:08:58.681Z,100381.59
2023-03-11T19:11:27.064Z,100379.72
2023-03-11T19:13:55.119Z,100390.88
2023-03-11T19:16:24.748Z,100390.69
2023-03-11T19:18:55.165Z,100394.03
2023-03-11T19:21:23.740Z,100393.91
2023-03-11T19:23:54.988Z,100396.41
2023-03-11T19:26:33.845Z,100392.81
2023-03-11T19:29:05.324Z,100393.53
2023-03-11T19:31:32.964Z,100406.41
2023-03-11T19:34:02.025Z,100393.25
2023-03-11T19:36:30.131Z,100403.59
2023-03-11T19:38:57.776Z,100400.00
2023-03-11T19:41:25.378Z,100401.69
2023-03-11T19:43:53.229Z,100409.38
2023-03-11T19:46:25.525Z,100411.91
2023-03-11T19:48:56.615Z,100400.34
2023-03-11T19:51:30.478Z,100402.78
2023-03-11T19:54:00.745Z,100408.66
2023-03-11T19:56:28.628Z,100407.59
2023-03-11T19:58:57.669Z,100405.81
2023-03-11T20:01:28.215Z,100406.53
2023-03-11T20:03:55.940Z,100408.06
2023-03-11T20:06:24.945Z,100407.09
2023-03-11T20:08:52.670Z,100407.88
2023-03-11T20:11:20.373Z,100411.16
2023-03-11T20:13:48.655Z,100415.38
2023-03-11T20:16:19.074Z,100414.44
2023-03-11T20:18:50.197Z,100407.28
2023-03-11T20:21:18.759Z,100409.81
2023-03-11T20:23:48.990Z,100414.09
2023-03-11T20:26:18.378Z,100419.13
2023-03-11T20:28:46.024Z,100425.88
2023-03-11T20:31:16.947Z,100420.53
2023-03-11T20:33:45.021Z,100428.25
2023-03-11T20:36:14.788Z,100428.09
2023-03-11T20:38:42.772Z,100433.25
2023-03-11T20:41:12.269Z,100434.00
2023-03-11T20:43:41.037Z,100436.53
2023-03-11T20:46:09.964Z,100447.81
2023-03-11T20:48:39.252Z,100434.78
2023-03-11T20:51:10.384Z,100432.91
2023-03-11T20:53:38.660Z,100431.03
2023-03-11T20:56:09.088Z,100432.69
2023-03-11T20:58:38.484Z,100440.44
2023-03-11T21:01:12.682Z,100430.75
2023-03-11T21:03:40.501Z,100428.00
2023-03-11T21:06:15.530Z,100418.31
2023-03-11T21:08:43.494Z,100422.66
2023-03-11T21:11:11.166Z,100424.31
2023-03-11T21:13:40.380Z,100430.25
2023-03-11T21:16:09.319Z,100434.53
2023-03-11T21:18:37.218Z,100428.38
2023-03-11T21:21:08.378Z,100426.44
2023-03-11T21:23:36.152Z,100424.59
2023-03-11T21:26:06.393Z,100425.34
2023-03-11T21:28:35.108Z,100431.41
2023-03-11T21:31:06.316Z,100440.03
2023-03-11T21:33:34.175Z,100433.00
2023-03-11T21:36:02.397Z,100428.59
2023-03-11T21:38:30.631Z,100423.38
2023-03-11T21:41:08.065Z,100421.59
2023-03-11T21:43:36.385Z,100419.75
2023-03-11T21:46:06.598Z,100404.88
2023-03-11T21:48:35.102Z,100406.41
2023-03-11T21:51:03.486Z,100411.47
2023-03-11T21:53:31.780Z,100413.19
2023-03-11T21:56:00.113Z,100414.84
2023-03-11T21:58:28.078Z,100412.16
2023-03-11T22:00:55.791Z,100413.91
2023-03-11T22:03:25.041Z,100418.16
2023-03-11T22:05:57.502Z,100428.50
2023-03-11T22:08:25.713Z,100419.78
2023-03-11T22:10:53.352Z,100427.47
2023-03-11T22:13:20.993Z,100423.97
2023-03-11T22:15:49.111Z,100416.06
2023-03-11T22:18:16.821Z,100423.88
2023-03-11T22:20:46.123Z,100429.03
2023-03-11T22:23:14.030Z,100417.66
2023-03-11T22:25:44.021Z,100427.25
2023-03-11T22:28:13.081Z,100423.72
2023-03-11T22:30:40.853Z,100415.00
2023-03-11T22:33:08.727Z,100426.25
2023-03-11T22:35:36.898Z,100418.38
2023-03-11T22:38:06.274Z,100425.28
2023-03-11T22:40:35.101Z,100427.94
2023-03-11T22:43:03.056Z,100425.28
2023-03-11T22:45:30.750Z,100422.63
2023-03-11T22:47:58.499Z,100426.91
2023-03-11T22:50:26.253Z,100419.94
2023-03-11T22:52:53.964Z,100422.53
2023-03-11T22:55:23.230Z,100423.34
2023-03-11T22:57:50.985Z,100427.75
2023-03-11T23:00:21.401Z,100426.03
2023-03-11T23:02:53.358Z,100426.09
2023-03-11T23:05:24.918Z,100421.78
2023-03-11T23:07:52.732Z,100420.09
2023-03-11T23:10:21.564Z,100430.50
2023-03-11T23:12:54.051Z,100427.88
2023-03-11T23:15:21.914Z,100426.16
2023-03-11T23:17:49.627Z,100430.59
2023-03-11T23:20:18.291Z,100429.72
2023-03-11T23:22:46.226Z,100428.91
2023-03-11T23:25:16.696Z,100435.00
2023-03-11T23:27:46.177Z,100435.00
2023-03-11T23:30:17.317Z,100436.78
2023-03-11T23:32:45.722Z,100439.41
2023-03-11T23:35:13.906Z,100436.78
2023-03-11T23:37:41.729Z,100432.47
2023-03-11T23:40:12.201Z,100442.72
2023-03-11T23:42:39.909Z,100442.81
2023-03-11T23:45:09.154Z,100437.53
2023-03-11T23:47:38.335Z,100434.94
2023-03-11T23:50:07.419Z,100436.66
2023-03-11T23:52:35.542Z,100441.94
2023-03-11T23:55:03.541Z,100435.75
2023-03-11T23:57:31.254Z,100433.09
2023-03-11T23:59:59.785Z,100439.03
